createdAt,value
2022-09-22T00:01:44.440Z,8.80
2022-09-22T00:04:14.199Z,8.70
2022-09-22T00:06:47.716Z,8.70
2022-09-22T00:09:19.482Z,8.60
2022-09-22T00:11:50.217Z,8.70
2022-09-22T00:14:21.302Z,8.50
2022-09-22T00:16:51.286Z,8.50
2022-09-22T00:19:21.959Z,8.40
2022-09-22T00:21:50.895Z,8.60
2022-09-22T00:24:22.684Z,8.50
2022-09-22T00:26:51.644Z,8.50
2022-09-22T00:29:20.061Z,8.50
2022-09-22T00:31:48.397Z,8.50
2022-09-22T00:34:20.587Z,8.50
2022-09-22T00:36:49.859Z,8.40
2022-09-22T00:39:20.652Z,8.30
2022-09-22T00:41:51.325Z,8.20
2022-09-22T00:44:40.550Z,8.20
2022-09-22T00:47:27.577Z,8.20
2022-09-22T00:50:02.251Z,8.10
2022-09-22T00:52:36.547Z,8.10
2022-09-22T00:55:13.102Z,8.00
2022-09-22T00:57:42.999Z,8.00
2022-09-22T01:00:13.117Z,8.00
2022-09-22T01:02:41.521Z,7.90
2022-09-22T01:05:10.936Z,7.90
2022-09-22T01:07:39.328Z,7.80
2022-09-22T01:10:27.652Z,7.80
2022-09-22T01:13:09.787Z,7.80
2022-09-22T01:15:47.874Z,7.80
2022-09-22T01:18:30.950Z,7.90
2022-09-22T01:21:21.691Z,7.70
2022-09-22T01:24:23.442Z,7.70
2022-09-22T01:27:33.362Z,7.60
2022-09-22T01:30:23.211Z,7.70
2022-09-22T01:33:03.031Z,7.40
2022-09-22T01:35:38.696Z,7.40
2022-09-22T01:38:12.370Z,7.40
2022-09-22T01:40:48.323Z,7.40
2022-09-22T01:43:27.216Z,7.50
2022-09-22T01:46:00.120Z,7.50
2022-09-22T01:48:35.585Z,7.50
2022-09-22T01:51:09.499Z,7.50
2022-09-22T01:53:43.134Z,7.60
2022-09-22T01:56:22.118Z,7.60
2022-09-22T01:59:08.140Z,7.60
2022-09-22T02:01:41.337Z,7.60
2022-09-22T02:04:15.487Z,7.30
2022-09-22T02:06:49.459Z,7.30
2022-09-22T02:09:21.267Z,7.40
2022-09-22T02:11:54.332Z,7.40
2022-09-22T02:14:22.692Z,7.30
2022-09-22T02:16:52.586Z,7.30
2022-09-22T02:19:24.977Z,7.30
2022-09-22T02:21:53.159Z,7.30
2022-09-22T02:24:29.997Z,7.40
2022-09-22T02:26:59.621Z,7.30
2022-09-22T02:29:32.276Z,7.20
2022-09-22T02:32:06.626Z,7.30
2022-09-22T02:34:35.038Z,7.20
2022-09-22T02:37:09.174Z,7.10
2022-09-22T02:39:43.613Z,7.00
2022-09-22T02:42:29.376Z,7.10
2022-09-22T02:45:10.427Z,7.20
2022-09-22T02:47:46.251Z,7.20
2022-09-22T02:50:17.601Z,7.20
2022-09-22T02:52:45.869Z,7.20
2022-09-22T02:55:18.159Z,7.10
2022-09-22T02:57:46.192Z,7.10
2022-09-22T03:00:15.063Z,7.00
2022-09-22T03:02:45.516Z,7.20
2022-09-22T03:05:13.559Z,7.10
2022-09-22T03:07:41.626Z,7.00
2022-09-22T03:10:10.978Z,7.10
2022-09-22T03:13:02.454Z,7.20
2022-09-22T03:15:30.648Z,7.00
2022-09-22T03:18:00.260Z,7.10
2022-09-22T03:20:28.280Z,7.10
2022-09-22T03:22:56.459Z,6.90
2022-09-22T03:25:24.837Z,6.90
2022-09-22T03:27:58.394Z,6.90
2022-09-22T03:30:26.234Z,6.80
2022-09-22T03:32:54.396Z,6.70
2022-09-22T03:35:23.603Z,6.70
2022-09-22T03:37:51.492Z,6.90
2022-09-22T03:40:19.362Z,6.80
2022-09-22T03:42:47.469Z,6.60
2022-09-22T03:45:16.090Z,6.70
2022-09-22T03:47:44.405Z,6.60
2022-09-22T03:50:12.239Z,6.50
2022-09-22T03:52:42.945Z,6.60
2022-09-22T03:55:11.343Z,6.60
2022-09-22T03:57:40.745Z,6.50
2022-09-22T04:00:10.022Z,6.30
2022-09-22T04:02:37.891Z,6.40
2022-09-22T04:05:06.749Z,6.30
2022-09-22T04:07:34.679Z,6.30
2022-09-22T04:10:04.738Z,6.50
2022-09-22T04:12:32.762Z,6.50
2022-09-22T04:15:00.631Z,6.40
2022-09-22T04:17:28.427Z,6.30
2022-09-22T04:19:56.606Z,6.30
2022-09-22T04:22:24.495Z,6.30
2022-09-22T04:24:52.614Z,6.30
2022-09-22T04:27:21.809Z,6.20
2022-09-22T04:29:49.978Z,6.40
2022-09-22T04:32:18.242Z,6.20
2022-09-22T04:34:46.295Z,6.00
2022-09-22T04:37:14.559Z,6.10
2022-09-22T04:39:42.511Z,6.20
2022-09-22T04:42:10.341Z,6.20
2022-09-22T04:44:39.722Z,6.10
2022-09-22T04:47:07.905Z,5.90
2022-09-22T04:49:35.755Z,5.90
2022-09-22T04:52:04.161Z,6.00
2022-09-22T04:54:32.420Z,6.20
2022-09-22T04:57:00.437Z,6.10
2022-09-22T04:59:29.539Z,6.10
2022-09-22T05:01:59.259Z,5.90
2022-09-22T05:04:27.049Z,5.90
2022-09-22T05:06:54.876Z,6.10
2022-09-22T05:09:22.858Z,6.40
2022-09-22T05:11:50.740Z,6.00
2022-09-22T05:14:22.769Z,6.00
2022-09-22T05:16:53.567Z,5.90
2022-09-22T05:19:22.822Z,6.00
2022-09-22T05:21:50.838Z,6.00
2022-09-22T05:24:18.664Z,5.80
2022-09-22T05:26:46.663Z,5.80
2022-09-22T05:29:14.935Z,5.90
2022-09-22T05:31:42.811Z,6.00
2022-09-22T05:34:10.686Z,6.00
2022-09-22T05:36:39.887Z,6.00
2022-09-22T05:39:07.705Z,6.10
2022-09-22T05:41:35.551Z,6.20
2022-09-22T05:44:03.481Z,6.20
2022-09-22T05:46:31.407Z,6.20
2022-09-22T05:48:59.231Z,6.20
2022-09-22T05:51:27.052Z,6.20
2022-09-22T05:53:56.912Z,6.30
2022-09-22T05:56:24.951Z,6.30
2022-09-22T05:58:52.825Z,6.40
2022-09-22T06:01:20.784Z,6.40
2022-09-22T06:03:48.647Z,6.60
2022-09-22T06:06:16.507Z,6.80
2022-09-22T06:08:48.702Z,6.80
2022-09-22T06:11:18.320Z,6.80
2022-09-22T06:13:46.563Z,6.80
2022-09-22T06:16:14.429Z,7.00
2022-09-22T06:18:42.395Z,7.00
2022-09-22T06:21:10.597Z,7.10
2022-09-22T06:23:42.750Z,7.20
2022-09-22T06:26:11.150Z,7.30
2022-09-22T06:28:40.348Z,7.50
2022-09-22T06:31:08.218Z,7.50
2022-09-22T06:33:36.080Z,7.70
2022-09-22T06:36:04.155Z,7.70
2022-09-22T06:38:32.917Z,7.80
2022-09-22T06:41:03.015Z,7.90
2022-09-22T06:43:30.870Z,8.00
2022-09-22T06:46:02.770Z,8.00
2022-09-22T06:48:31.960Z,8.00
2022-09-22T06:50:59.810Z,8.20
2022-09-22T06:53:27.858Z,8.20
2022-09-22T06:55:55.928Z,8.40
2022-09-22T06:58:25.237Z,8.50
2022-09-22T07:00:53.683Z,8.50
2022-09-22T07:03:26.373Z,8.60
2022-09-22T07:05:56.384Z,8.70
2022-09-22T07:08:25.864Z,8.90
2022-09-22T07:10:58.024Z,9.00
2022-09-22T07:13:26.415Z,9.10
2022-09-22T07:15:55.399Z,9.20
2022-09-22T07:18:31.258Z,9.40
2022-09-22T07:21:04.017Z,9.50
2022-09-22T07:23:34.697Z,9.60
2022-09-22T07:26:04.699Z,9.70
2022-09-22T07:28:33.973Z,9.80
2022-09-22T07:31:06.098Z,9.80
2022-09-22T07:33:36.772Z,9.90
2022-09-22T07:36:08.934Z,10.00
2022-09-22T07:38:37.060Z,10.10
2022-09-22T07:41:07.637Z,10.20
2022-09-22T07:43:35.884Z,10.30
2022-09-22T07:46:04.316Z,10.30
2022-09-22T07:48:42.482Z,10.40
2022-09-22T07:51:16.910Z,10.40
2022-09-22T07:53:46.790Z,10.60
2022-09-22T07:56:16.635Z,10.70
2022-09-22T07:58:50.890Z,10.80
2022-09-22T08:01:20.125Z,10.90
2022-09-22T08:03:48.411Z,11.10
2022-09-22T08:06:19.982Z,11.10
2022-09-22T08:08:52.409Z,11.30
2022-09-22T08:11:21.874Z,11.50
2022-09-22T08:13:53.307Z,11.80
2022-09-22T08:16:22.596Z,12.00
2022-09-22T08:18:56.382Z,11.90
2022-09-22T08:21:26.309Z,11.80
2022-09-22T08:23:55.074Z,11.90
2022-09-22T08:26:23.101Z,12.30
2022-09-22T08:28:53.346Z,12.30
2022-09-22T08:31:21.902Z,12.20
2022-09-22T08:33:52.101Z,12.30
2022-09-22T08:36:20.814Z,12.40
2022-09-22T08:38:50.330Z,12.40
2022-09-22T08:41:25.711Z,12.50
2022-09-22T08:43:56.222Z,12.50
2022-09-22T08:46:36.450Z,12.70
2022-09-22T08:49:30.552Z,12.70
2022-09-22T08:52:11.304Z,12.80
2022-09-22T08:54:40.667Z,12.90
2022-09-22T08:57:28.251Z,12.90
2022-09-22T09:00:05.866Z,13.00
2022-09-22T09:02:40.071Z,13.10
2022-09-22T09:05:48.460Z,13.30
2022-09-22T09:08:52.970Z,13.40
2022-09-22T09:11:34.079Z,13.10
2022-09-22T09:14:23.851Z,13.30
2022-09-22T09:16:57.545Z,13.40
2022-09-22T09:19:35.156Z,13.30
2022-09-22T09:22:26.109Z,13.30
2022-09-22T09:27:53.147Z,13.50
2022-09-22T09:30:23.263Z,13.70
2022-09-22T09:32:54.514Z,13.80
2022-09-22T09:35:26.943Z,13.90
2022-09-22T09:37:58.979Z,14.00
2022-09-22T09:40:27.737Z,13.90
2022-09-22T09:43:03.310Z,13.80
2022-09-22T09:45:38.665Z,13.90
2022-09-22T09:48:22.662Z,14.10
2022-09-22T09:50:50.881Z,14.20
2022-09-22T09:53:33.526Z,14.30
2022-09-22T09:56:01.937Z,14.30
2022-09-22T09:58:48.791Z,14.20
2022-09-22T10:01:17.385Z,14.30
2022-09-22T10:03:48.327Z,14.30
2022-09-22T10:06:24.507Z,14.30
2022-09-22T10:08:55.010Z,14.50
2022-09-22T10:11:31.286Z,14.60
2022-09-22T10:14:01.119Z,14.80
2022-09-22T10:16:30.752Z,14.90
2022-09-22T10:19:22.976Z,15.10
2022-09-22T10:21:51.050Z,15.20
2022-09-22T10:24:31.563Z,15.00
2022-09-22T10:27:02.510Z,15.10
2022-09-22T10:29:34.582Z,14.90
2022-09-22T10:32:12.889Z,15.10
2022-09-22T10:37:21.504Z,15.30
2022-09-22T10:39:51.340Z,15.20
2022-09-22T10:42:34.411Z,15.30
2022-09-22T10:45:06.972Z,15.40
2022-09-22T10:47:51.366Z,15.10
2022-09-22T10:50:56.893Z,15.20
2022-09-22T10:53:46.779Z,15.50
2022-09-22T10:56:21.412Z,16.00
2022-09-22T10:59:07.291Z,16.00
2022-09-22T11:01:48.609Z,15.90
2022-09-22T11:04:29.558Z,15.90
2022-09-22T11:07:42.372Z,15.70
2022-09-22T11:10:45.738Z,15.60
2022-09-22T11:13:25.890Z,16.00
2022-09-22T11:16:28.894Z,16.10
2022-09-22T11:19:17.202Z,15.80
2022-09-22T11:22:05.174Z,15.80
2022-09-22T11:24:47.425Z,16.20
2022-09-22T11:27:23.650Z,16.20
2022-09-22T11:30:11.266Z,16.20
2022-09-22T11:32:55.182Z,16.30
2022-09-22T11:35:40.448Z,16.40
2022-09-22T11:38:26.649Z,16.40
2022-09-22T11:41:10.487Z,16.60
2022-09-22T11:43:49.962Z,16.60
2022-09-22T11:46:24.331Z,16.70
2022-09-22T11:49:07.236Z,16.90
2022-09-22T11:52:08.491Z,16.90
2022-09-22T11:55:08.254Z,17.10
2022-09-22T11:57:40.515Z,17.30
2022-09-22T12:00:16.397Z,17.70
2022-09-22T12:02:50.769Z,17.20
2022-09-22T12:05:24.851Z,17.10
2022-09-22T12:07:59.591Z,17.00
2022-09-22T12:10:34.566Z,16.90
2022-09-22T12:13:04.347Z,17.50
2022-09-22T12:15:37.861Z,17.50
2022-09-22T12:18:11.199Z,17.80
2022-09-22T12:20:56.044Z,17.90
2022-09-22T12:23:40.369Z,17.90
2022-09-22T12:26:10.790Z,17.90
2022-09-22T12:28:41.505Z,18.10
2022-09-22T12:31:13.170Z,18.20
2022-09-22T12:33:48.375Z,18.20
2022-09-22T12:36:18.216Z,18.10
2022-09-22T12:38:47.811Z,18.10
2022-09-22T12:41:24.707Z,18.20
2022-09-22T12:43:53.434Z,18.10
2022-09-22T12:46:30.627Z,18.40
2022-09-22T12:48:59.256Z,18.50
2022-09-22T12:51:33.209Z,18.40
2022-09-22T12:54:49.463Z,18.40
2022-09-22T12:57:51.562Z,18.40
2022-09-22T13:00:32.920Z,18.50
2022-09-22T13:03:02.275Z,18.60
2022-09-22T13:05:41.761Z,18.30
2022-09-22T13:08:25.920Z,18.20
2022-09-22T13:10:59.450Z,18.50
2022-09-22T13:13:45.181Z,18.60
2022-09-22T13:16:33.410Z,18.80
2022-09-22T13:19:02.127Z,18.80
2022-09-22T13:21:31.595Z,18.60
2022-09-22T13:24:00.935Z,18.30
2022-09-22T13:26:31.574Z,18.30
2022-09-22T13:29:19.561Z,18.10
2022-09-22T13:31:51.078Z,18.20
2022-09-22T13:34:31.091Z,18.40
2022-09-22T13:37:01.696Z,18.50
2022-09-22T13:39:35.029Z,18.80
2022-09-22T13:42:07.326Z,18.40
2022-09-22T13:44:41.870Z,18.70
2022-09-22T13:47:17.052Z,18.70
2022-09-22T13:49:49.563Z,18.40
2022-09-22T13:52:22.558Z,18.40
2022-09-22T13:54:54.539Z,18.30
2022-09-22T13:57:25.670Z,18.40
2022-09-22T13:59:57.674Z,18.70
2022-09-22T14:02:31.286Z,18.80
2022-09-22T14:05:04.359Z,18.60
2022-09-22T14:07:45.081Z,18.30
2022-09-22T14:10:23.150Z,18.20
2022-09-22T14:12:51.002Z,17.90
2022-09-22T14:15:43.394Z,18.20
2022-09-22T14:18:25.789Z,18.60
2022-09-22T14:20:55.964Z,18.50
2022-09-22T14:23:31.662Z,18.40
2022-09-22T14:26:02.959Z,18.50
2022-09-22T14:28:34.517Z,18.60
2022-09-22T14:31:12.879Z,18.20
2022-09-22T14:33:44.921Z,18.30
2022-09-22T14:36:19.114Z,18.50
2022-09-22T14:39:02.517Z,18.60
2022-09-22T14:41:38.144Z,18.30
2022-09-22T14:44:35.256Z,18.10
2022-09-22T14:47:18.348Z,18.00
2022-09-22T14:49:48.642Z,18.10
2022-09-22T14:52:26.884Z,17.90
2022-09-22T14:54:56.507Z,17.80
2022-09-22T14:57:25.971Z,17.80
2022-09-22T15:00:15.631Z,17.90
2022-09-22T15:02:49.481Z,18.00
2022-09-22T15:05:29.653Z,18.00
2022-09-22T15:07:58.553Z,17.80
2022-09-22T15:10:29.139Z,17.90
2022-09-22T15:13:20.026Z,18.00
2022-09-22T15:15:49.623Z,18.10
2022-09-22T15:18:19.504Z,18.00
2022-09-22T15:20:50.726Z,18.00
2022-09-22T15:23:25.938Z,18.00
2022-09-22T15:25:55.313Z,17.80
2022-09-22T15:28:26.935Z,18.00
2022-09-22T15:30:55.193Z,17.80
2022-09-22T15:33:25.182Z,17.60
2022-09-22T15:35:56.427Z,17.50
2022-09-22T15:38:27.484Z,17.60
2022-09-22T15:40:55.545Z,17.70
2022-09-22T15:43:29.290Z,17.60
2022-09-22T15:46:01.147Z,17.60
2022-09-22T15:48:32.927Z,17.70
2022-09-22T15:51:04.750Z,17.50
2022-09-22T15:53:33.274Z,17.60
2022-09-22T15:56:05.294Z,17.80
2022-09-22T15:58:36.369Z,17.60
2022-09-22T16:01:05.587Z,17.60
2022-09-22T16:03:41.080Z,17.60
2022-09-22T16:06:13.347Z,17.50
2022-09-22T16:08:43.890Z,17.60
2022-09-22T16:11:14.091Z,17.50
2022-09-22T16:13:42.486Z,17.40
2022-09-22T16:16:12.539Z,17.20
2022-09-22T16:18:42.156Z,17.30
2022-09-22T16:21:19.567Z,17.30
2022-09-22T16:23:47.797Z,17.20
2022-09-22T16:26:15.730Z,17.30
2022-09-22T16:28:43.624Z,17.40
2022-09-22T16:31:13.417Z,17.20
2022-09-22T16:33:43.862Z,17.10
2022-09-22T16:36:12.067Z,17.10
2022-09-22T16:38:39.921Z,17.10
2022-09-22T16:41:18.319Z,17.00
2022-09-22T16:43:46.216Z,16.80
2022-09-22T16:46:30.506Z,16.90
2022-09-22T16:49:04.100Z,16.70
2022-09-22T16:51:33.249Z,16.60
2022-09-22T16:54:01.490Z,16.50
2022-09-22T16:56:31.181Z,16.50
2022-09-22T16:59:01.282Z,16.30
2022-09-22T17:01:29.771Z,16.20
2022-09-22T17:03:59.394Z,15.90
2022-09-22T17:06:27.656Z,15.90
2022-09-22T17:08:57.383Z,15.80
2022-09-22T17:11:36.315Z,15.60
2022-09-22T17:14:30.728Z,15.50
2022-09-22T17:17:06.269Z,15.40
2022-09-22T17:19:39.379Z,15.30
2022-09-22T17:22:07.440Z,15.10
2022-09-22T17:24:35.340Z,15.00
2022-09-22T17:27:03.232Z,15.00
2022-09-22T17:29:32.766Z,15.00
2022-09-22T17:32:04.260Z,14.80
2022-09-22T17:34:34.176Z,14.70
2022-09-22T17:37:04.008Z,14.60
2022-09-22T17:39:32.673Z,14.60
2022-09-22T17:42:01.019Z,14.50
2022-09-22T17:44:33.370Z,14.40
2022-09-22T17:47:18.699Z,14.40
2022-09-22T17:50:03.844Z,14.20
2022-09-22T17:52:50.669Z,13.90
2022-09-22T17:55:25.234Z,13.90
2022-09-22T17:57:54.543Z,13.80
2022-09-22T18:00:23.932Z,13.60
2022-09-22T18:02:54.132Z,13.50
2022-09-22T18:05:25.425Z,13.40
2022-09-22T18:07:58.387Z,13.30
2022-09-22T18:10:33.283Z,13.20
2022-09-22T18:13:02.253Z,13.30
2022-09-22T18:15:30.348Z,13.10
2022-09-22T18:17:58.737Z,13.10
2022-09-22T18:20:27.483Z,13.10
2022-09-22T18:22:57.707Z,12.90
2022-09-22T18:25:25.870Z,12.80
2022-09-22T18:27:55.109Z,12.90
2022-09-22T18:30:23.203Z,13.00
2022-09-22T18:32:51.716Z,12.90
2022-09-22T18:35:20.168Z,12.80
2022-09-22T18:37:48.173Z,12.80
2022-09-22T18:40:17.878Z,12.60
2022-09-22T18:42:46.139Z,12.50
2022-09-22T18:45:14.345Z,12.50
2022-09-22T18:47:43.599Z,12.40
2022-09-22T18:50:13.073Z,12.50
2022-09-22T18:52:43.127Z,12.30
2022-09-22T18:55:17.233Z,12.40
2022-09-22T18:57:48.052Z,12.50
2022-09-22T19:00:20.986Z,12.40
2022-09-22T19:02:56.905Z,12.30
2022-09-22T19:05:24.948Z,12.40
2022-09-22T19:07:54.816Z,12.10
2022-09-22T19:10:23.379Z,11.90
2022-09-22T19:12:55.567Z,11.80
2022-09-22T19:15:25.296Z,11.80
2022-09-22T19:17:53.260Z,11.80
2022-09-22T19:20:24.227Z,11.80
2022-09-22T19:22:53.917Z,11.80
2022-09-22T19:25:23.269Z,11.70
2022-09-22T19:27:53.792Z,11.60
2022-09-22T19:30:24.816Z,11.60
2022-09-22T19:32:54.569Z,11.60
2022-09-22T19:35:22.960Z,11.60
2022-09-22T19:37:51.729Z,11.50
2022-09-22T19:40:20.917Z,11.50
2022-09-22T19:42:49.835Z,11.40
2022-09-22T19:45:19.623Z,11.40
2022-09-22T19:47:59.190Z,11.40
2022-09-22T19:50:52.977Z,11.40
2022-09-22T19:53:21.018Z,11.30
2022-09-22T19:55:49.081Z,11.30
2022-09-22T19:58:45.280Z,11.40
2022-09-22T20:01:28.786Z,11.40
2022-09-22T20:04:03.454Z,11.40
2022-09-22T20:06:31.682Z,11.20
2022-09-22T20:09:03.322Z,11.00
2022-09-22T20:11:32.621Z,11.00
2022-09-22T20:14:37.416Z,11.00
2022-09-22T20:17:08.996Z,10.90
2022-09-22T20:19:47.203Z,11.00
2022-09-22T20:22:25.106Z,10.90
2022-09-22T20:24:55.598Z,10.90
2022-09-22T20:27:32.104Z,10.80
2022-09-22T20:30:23.238Z,10.80
2022-09-22T20:33:01.213Z,10.80
2022-09-22T20:35:29.640Z,10.80
2022-09-22T20:37:59.608Z,10.70
2022-09-22T20:40:51.469Z,10.70
2022-09-22T20:43:19.883Z,10.70
2022-09-22T20:45:47.947Z,10.60
2022-09-22T20:48:18.499Z,10.60
2022-09-22T20:50:46.853Z,10.60
2022-09-22T20:53:14.767Z,10.50
2022-09-22T20:55:42.660Z,10.40
2022-09-22T20:58:12.835Z,10.40
2022-09-22T21:00:40.815Z,10.50
2022-09-22T21:03:17.625Z,10.50
2022-09-22T21:06:00.804Z,10.40
2022-09-22T21:08:46.283Z,10.40
2022-09-22T21:11:14.802Z,10.30
2022-09-22T21:13:42.753Z,10.30
2022-09-22T21:16:13.727Z,10.40
2022-09-22T21:18:41.846Z,10.30
2022-09-22T21:21:11.103Z,10.40
2022-09-22T21:23:38.982Z,10.30
2022-09-22T21:26:07.763Z,10.20
2022-09-22T21:28:35.645Z,10.20
2022-09-22T21:31:05.192Z,10.20
2022-09-22T21:33:33.486Z,10.30
2022-09-22T21:36:03.052Z,10.20
2022-09-22T21:38:32.652Z,10.30
2022-09-22T21:41:01.615Z,10.50
2022-09-22T21:43:30.615Z,10.30
2022-09-22T21:46:04.323Z,10.40
2022-09-22T21:48:36.200Z,10.30
2022-09-22T21:51:05.932Z,10.20
2022-09-22T21:53:36.460Z,10.10
2022-09-22T21:56:06.480Z,10.10
2022-09-22T21:58:36.280Z,10.10
2022-09-22T22:01:07.686Z,10.00
2022-09-22T22:03:36.835Z,10.00
2022-09-22T22:06:10.784Z,10.00
2022-09-22T22:08:43.401Z,10.00
2022-09-22T22:11:13.153Z,9.90
2022-09-22T22:13:42.437Z,10.00
2022-09-22T22:16:13.350Z,10.00
2022-09-22T22:18:42.585Z,9.90
2022-09-22T22:21:12.962Z,10.20
2022-09-22T22:23:44.478Z,10.00
2022-09-22T22:26:14.448Z,9.80
2022-09-22T22:28:43.640Z,9.80
2022-09-22T22:31:13.357Z,9.90
2022-09-22T22:33:43.282Z,10.00
2022-09-22T22:36:13.537Z,10.10
2022-09-22T22:38:44.477Z,9.90
2022-09-22T22:41:13.999Z,9.80
2022-09-22T22:43:43.024Z,9.70
2022-09-22T22:46:16.491Z,9.80
2022-09-22T22:48:44.601Z,9.80
2022-09-22T22:51:17.141Z,9.80
2022-09-22T22:53:47.948Z,9.60
2022-09-22T22:56:17.747Z,9.70
2022-09-22T22:58:46.991Z,9.60
2022-09-22T23:01:17.508Z,9.40
2022-09-22T23:03:47.306Z,9.50
2022-09-22T23:06:17.768Z,9.40
2022-09-22T23:08:47.420Z,9.30
2022-09-22T23:11:17.957Z,9.30
2022-09-22T23:13:50.805Z,9.40
2022-09-22T23:16:20.704Z,9.40
2022-09-22T23:18:49.313Z,9.30
2022-09-22T23:21:19.155Z,9.40
2022-09-22T23:23:49.548Z,9.30
2022-09-22T23:26:18.599Z,9.30
2022-09-22T23:28:46.513Z,9.40
2022-09-22T23:31:17.147Z,9.30
2022-09-22T23:33:48.329Z,9.30
2022-09-22T23:36:18.532Z,9.30
2022-09-22T23:38:48.316Z,9.20
2022-09-22T23:41:16.394Z,9.30
2022-09-22T23:43:44.247Z,9.40
2022-09-22T23:46:12.393Z,9.40
2022-09-22T23:48:40.343Z,9.30
2022-09-22T23:51:08.283Z,9.20
2022-09-22T23:53:38.177Z,9.20
2022-09-22T23:56:08.633Z,9.30
2022-09-22T23:58:38.016Z,9.30
